Laramie Regional Airport
KLAR : now visible

Airfield :











YOU CAN JOIN US ON...

 
LOGIN :

Register | Disclaimer

   EN    FR    IT 

 









Legend :    VFR   Marginal VFR   IFR   Intensive IFR   Very Intensive IFR
Visi :
Ceiling :
>= 8 km
>= 3000ft
5 to 8 km
1000 to 3000 ft
1500m to 5 km
500 to 1000 ft
800 to 1500m
200 to 500 ft
< 800m
< 200 ft
Symbols :   Thunderstorms  Fog  Heavy snow  Heavy precipitations  Wind > 20 kt






- Airport Elevation : 7284 ft
- IATA code : LAR


KLAR - Laramie Regional

CURRENT METAR :
  • 190953Z AUTO 24013KT 10SM CLR 12/04 A3014 RMK AO2 SLP086 T01220044 $

EXPIRED METARs :
  • 190853Z AUTO 19009KT 10SM CLR 12/05 A3014 RMK AO2 SLP085 T01220050 56013 $
  • 190753Z AUTO 20016G23KT 10SM CLR 14/05 A3014 RMK AO2 PK WND 21032/0705 SLP084 T01390050 $

TAF KLAR
Valid from the 19 at 06:00 until the 20 at 06:00 UTC


190525Z 1906/2006 23015G25KT P6SM BKN120
FM191500 24026G38KT P6SM BKN100
FM200200 31020G30KT P6SM VCSH BKN060
KZDV FIR / North America



MET'MAP, your aeronautical weather chart ! - Copyright ORBIFLY December 2007 - Disclaimer

ORBIFLY MET'MAP TEAM :

Programming & Development : Alexandra Zaïnal
Concept & original design : Baudouin d'Aumeries
Assistance for programming : Marc-Olivier Méhu
Technical & hardware support : Manuel Goepfert

Contact : metmap@orbifly.com




SOURCES & CREDITS :

   NOAA       Earth
Advisory